sensor_id;sensor_type;location;lat;lon;timestamp;pressure;altitude;pressure_sealevel;temperature;humidity
11682;BME280;5897;42.640;23.310;2023-02-03T00:00:25;94093.41;;;2.66;84.65
11682;BME280;5897;42.640;23.310;2023-02-03T00:02:53;94099.06;;;2.57;84.45
11682;BME280;5897;42.640;23.310;2023-02-03T00:05:20;94089.19;;;2.61;86.69
11682;BME280;5897;42.640;23.310;2023-02-03T00:07:47;94087.63;;;2.53;85.31
11682;BME280;5897;42.640;23.310;2023-02-03T00:10:14;94091.41;;;2.52;85.77
11682;BME280;5897;42.640;23.310;2023-02-03T00:12:47;94094.00;;;2.42;91.49
11682;BME280;5897;42.640;23.310;2023-02-03T00:15:14;94085.94;;;2.31;87.21
11682;BME280;5897;42.640;23.310;2023-02-03T00:17:41;94095.09;;;2.34;89.65
11682;BME280;5897;42.640;23.310;2023-02-03T00:20:09;94089.69;;;2.23;89.27
11682;BME280;5897;42.640;23.310;2023-02-03T00:22:36;94077.84;;;2.17;90.96
11682;BME280;5897;42.640;23.310;2023-02-03T00:25:04;94083.69;;;2.37;92.42
11682;BME280;5897;42.640;23.310;2023-02-03T00:27:31;94082.56;;;2.41;95.73
11682;BME280;5897;42.640;23.310;2023-02-03T00:29:59;94086.22;;;2.73;100.00
11682;BME280;5897;42.640;23.310;2023-02-03T00:32:26;94060.25;;;2.67;100.00
11682;BME280;5897;42.640;23.310;2023-02-03T00:34:53;94078.50;;;2.58;90.07
11682;BME280;5897;42.640;23.310;2023-02-03T00:37:19;94094.22;;;2.73;93.67
11682;BME280;5897;42.640;23.310;2023-02-03T00:39:47;94101.06;;;2.74;93.15
11682;BME280;5897;42.640;23.310;2023-02-03T00:42:14;94090.44;;;2.81;95.33
11682;BME280;5897;42.640;23.310;2023-02-03T00:44:41;94098.91;;;2.97;96.26
11682;BME280;5897;42.640;23.310;2023-02-03T00:47:09;94114.41;;;2.74;85.56
11682;BME280;5897;42.640;23.310;2023-02-03T00:49:36;94111.66;;;2.60;83.31
11682;BME280;5897;42.640;23.310;2023-02-03T00:52:03;94092.59;;;2.58;83.49
11682;BME280;5897;42.640;23.310;2023-02-03T00:54:30;94100.50;;;2.44;83.13
11682;BME280;5897;42.640;23.310;2023-02-03T00:56:57;94113.44;;;2.42;82.99
11682;BME280;5897;42.640;23.310;2023-02-03T00:59:24;94121.88;;;2.51;82.71
11682;BME280;5897;42.640;23.310;2023-02-03T01:01:50;94108.00;;;2.28;83.30
11682;BME280;5897;42.640;23.310;2023-02-03T01:04:18;94119.09;;;2.34;83.88
11682;BME280;5897;42.640;23.310;2023-02-03T01:06:45;94127.13;;;2.37;84.13
11682;BME280;5897;42.640;23.310;2023-02-03T01:09:12;94130.50;;;2.34;84.95
11682;BME280;5897;42.640;23.310;2023-02-03T01:11:39;94129.25;;;2.18;86.12
11682;BME280;5897;42.640;23.310;2023-02-03T01:14:05;94129.94;;;2.11;85.81
11682;BME280;5897;42.640;23.310;2023-02-03T01:16:32;94137.88;;;2.04;86.85
11682;BME280;5897;42.640;23.310;2023-02-03T01:19:02;94127.56;;;1.99;87.45
11682;BME280;5897;42.640;23.310;2023-02-03T01:21:31;94119.59;;;2.03;87.92
11682;BME280;5897;42.640;23.310;2023-02-03T01:23:58;94133.69;;;2.03;86.74
11682;BME280;5897;42.640;23.310;2023-02-03T01:26:25;94119.94;;;2.01;86.00
11682;BME280;5897;42.640;23.310;2023-02-03T01:28:53;94142.41;;;2.00;85.24
11682;BME280;5897;42.640;23.310;2023-02-03T01:31:22;94129.13;;;2.07;85.35
11682;BME280;5897;42.640;23.310;2023-02-03T01:33:51;94123.91;;;2.18;88.70
11682;BME280;5897;42.640;23.310;2023-02-03T01:36:19;94125.34;;;2.08;89.36
11682;BME280;5897;42.640;23.310;2023-02-03T01:38:48;94123.75;;;2.00;90.05
11682;BME280;5897;42.640;23.310;2023-02-03T01:41:16;94121.53;;;2.06;92.39
11682;BME280;5897;42.640;23.310;2023-02-03T01:43:45;94126.88;;;2.09;87.03
11682;BME280;5897;42.640;23.310;2023-02-03T01:46:23;94129.41;;;1.95;88.96
11682;BME280;5897;42.640;23.310;2023-02-03T01:48:51;94120.38;;;2.03;89.71
11682;BME280;5897;42.640;23.310;2023-02-03T01:51:19;94133.94;;;2.35;91.74
11682;BME280;5897;42.640;23.310;2023-02-03T01:53:48;94145.38;;;2.35;92.72
11682;BME280;5897;42.640;23.310;2023-02-03T01:56:17;94154.97;;;2.43;92.25
11682;BME280;5897;42.640;23.310;2023-02-03T01:58:45;94151.56;;;2.46;90.84
11682;BME280;5897;42.640;23.310;2023-02-03T02:01:13;94160.16;;;2.29;87.41
11682;BME280;5897;42.640;23.310;2023-02-03T02:03:43;94151.50;;;2.39;93.82
11682;BME280;5897;42.640;23.310;2023-02-03T02:06:12;94153.91;;;2.55;92.51
11682;BME280;5897;42.640;23.310;2023-02-03T02:08:41;94143.94;;;2.45;88.89
11682;BME280;5897;42.640;23.310;2023-02-03T02:11:10;94149.00;;;2.60;90.84
11682;BME280;5897;42.640;23.310;2023-02-03T02:13:37;94163.66;;;2.37;84.60
11682;BME280;5897;42.640;23.310;2023-02-03T02:16:09;94163.78;;;2.47;87.27
11682;BME280;5897;42.640;23.310;2023-02-03T02:18:51;94152.97;;;2.33;84.37
11682;BME280;5897;42.640;23.310;2023-02-03T02:21:40;94160.88;;;2.23;83.87
11682;BME280;5897;42.640;23.310;2023-02-03T02:27:28;94168.75;;;2.09;83.63
11682;BME280;5897;42.640;23.310;2023-02-03T02:30:20;94167.16;;;2.01;83.28
11682;BME280;5897;42.640;23.310;2023-02-03T02:33:03;94185.78;;;1.97;83.92
11682;BME280;5897;42.640;23.310;2023-02-03T02:35:44;94173.50;;;1.89;84.77
11682;BME280;5897;42.640;23.310;2023-02-03T02:38:22;94164.63;;;1.78;84.52
11682;BME280;5897;42.640;23.310;2023-02-03T02:40:55;94169.59;;;1.80;84.92
11682;BME280;5897;42.640;23.310;2023-02-03T02:43:28;94165.38;;;1.75;84.97
11682;BME280;5897;42.640;23.310;2023-02-03T02:46:02;94161.47;;;1.66;83.98
11682;BME280;5897;42.640;23.310;2023-02-03T02:48:39;94165.97;;;1.62;84.13
11682;BME280;5897;42.640;23.310;2023-02-03T02:51:10;94168.00;;;1.72;84.84
11682;BME280;5897;42.640;23.310;2023-02-03T02:53:41;94173.72;;;1.74;83.79
11682;BME280;5897;42.640;23.310;2023-02-03T02:56:12;94170.28;;;1.73;82.02
11682;BME280;5897;42.640;23.310;2023-02-03T02:58:43;94185.50;;;1.73;82.34
11682;BME280;5897;42.640;23.310;2023-02-03T03:01:13;94204.91;;;1.73;80.72
11682;BME280;5897;42.640;23.310;2023-02-03T03:03:42;94178.69;;;1.75;81.21
11682;BME280;5897;42.640;23.310;2023-02-03T03:06:11;94196.63;;;1.82;82.94
11682;BME280;5897;42.640;23.310;2023-02-03T03:08:42;94198.97;;;1.87;80.52
11682;BME280;5897;42.640;23.310;2023-02-03T03:11:11;94189.41;;;1.82;84.37
11682;BME280;5897;42.640;23.310;2023-02-03T03:13:41;94194.84;;;1.93;85.27
11682;BME280;5897;42.640;23.310;2023-02-03T03:16:11;94176.84;;;1.79;82.35
11682;BME280;5897;42.640;23.310;2023-02-03T03:18:43;94194.81;;;1.89;83.04
11682;BME280;5897;42.640;23.310;2023-02-03T03:21:15;94196.31;;;1.87;81.06
11682;BME280;5897;42.640;23.310;2023-02-03T03:23:47;94199.16;;;2.04;85.74
11682;BME280;5897;42.640;23.310;2023-02-03T03:26:20;94203.25;;;1.95;79.05
11682;BME280;5897;42.640;23.310;2023-02-03T03:28:51;94203.22;;;1.91;79.08
11682;BME280;5897;42.640;23.310;2023-02-03T03:31:20;94207.69;;;1.84;77.03
11682;BME280;5897;42.640;23.310;2023-02-03T03:33:48;94175.13;;;1.64;78.25
11682;BME280;5897;42.640;23.310;2023-02-03T03:36:22;94213.38;;;1.82;79.89
11682;BME280;5897;42.640;23.310;2023-02-03T03:38:54;94207.97;;;1.75;77.41
11682;BME280;5897;42.640;23.310;2023-02-03T03:41:27;94209.63;;;1.87;80.48
11682;BME280;5897;42.640;23.310;2023-02-03T03:44:01;94199.22;;;1.75;78.41
11682;BME280;5897;42.640;23.310;2023-02-03T03:46:34;94197.31;;;1.75;80.43
11682;BME280;5897;42.640;23.310;2023-02-03T03:49:05;94198.38;;;1.67;78.78
11682;BME280;5897;42.640;23.310;2023-02-03T03:51:39;94207.81;;;1.61;78.24
11682;BME280;5897;42.640;23.310;2023-02-03T03:54:10;94180.34;;;1.54;77.73
11682;BME280;5897;42.640;23.310;2023-02-03T03:56:40;94200.72;;;1.72;77.82
11682;BME280;5897;42.640;23.310;2023-02-03T03:59:10;94205.31;;;1.75;78.20
11682;BME280;5897;42.640;23.310;2023-02-03T04:01:38;94199.41;;;1.59;78.74
11682;BME280;5897;42.640;23.310;2023-02-03T04:04:09;94199.47;;;1.63;79.38
11682;BME280;5897;42.640;23.310;2023-02-03T04:06:37;94212.63;;;1.49;80.26
11682;BME280;5897;42.640;23.310;2023-02-03T04:09:04;94215.41;;;1.59;80.31
11682;BME280;5897;42.640;23.310;2023-02-03T04:11:31;94214.59;;;1.55;80.67
11682;BME280;5897;42.640;23.310;2023-02-03T04:14:16;94216.03;;;1.49;80.69
11682;BME280;5897;42.640;23.310;2023-02-03T04:16:43;94222.56;;;1.55;80.82
11682;BME280;5897;42.640;23.310;2023-02-03T04:19:11;94220.22;;;1.50;81.01
11682;BME280;5897;42.640;23.310;2023-02-03T04:21:38;94220.28;;;1.54;80.91
11682;BME280;5897;42.640;23.310;2023-02-03T04:24:05;94235.13;;;1.55;80.67
11682;BME280;5897;42.640;23.310;2023-02-03T04:26:32;94231.25;;;1.49;80.89
11682;BME280;5897;42.640;23.310;2023-02-03T04:28:58;94234.59;;;1.42;81.59
11682;BME280;5897;42.640;23.310;2023-02-03T04:31:25;94253.22;;;1.42;81.55
11682;BME280;5897;42.640;23.310;2023-02-03T04:33:52;94251.09;;;1.55;81.73
11682;BME280;5897;42.640;23.310;2023-02-03T04:36:21;94264.81;;;1.57;81.66
11682;BME280;5897;42.640;23.310;2023-02-03T04:38:47;94258.13;;;1.70;85.69
11682;BME280;5897;42.640;23.310;2023-02-03T04:41:14;94266.41;;;1.94;87.51
11682;BME280;5897;42.640;23.310;2023-02-03T04:43:41;94272.09;;;1.93;85.65
11682;BME280;5897;42.640;23.310;2023-02-03T04:46:08;94275.94;;;1.95;89.41
11682;BME280;5897;42.640;23.310;2023-02-03T04:48:35;94290.88;;;2.03;82.44
11682;BME280;5897;42.640;23.310;2023-02-03T04:51:04;94285.47;;;1.96;85.96
11682;BME280;5897;42.640;23.310;2023-02-03T04:53:33;94286.44;;;1.81;80.62
11682;BME280;5897;42.640;23.310;2023-02-03T04:56:00;94286.22;;;1.97;87.40
11682;BME280;5897;42.640;23.310;2023-02-03T04:58:27;94281.53;;;1.87;80.41
11682;BME280;5897;42.640;23.310;2023-02-03T05:00:53;94291.91;;;1.95;81.90
11682;BME280;5897;42.640;23.310;2023-02-03T05:03:20;94292.72;;;1.99;80.94
11682;BME280;5897;42.640;23.310;2023-02-03T05:05:48;94300.38;;;2.01;81.93
11682;BME280;5897;42.640;23.310;2023-02-03T05:08:15;94304.03;;;1.89;79.05
11682;BME280;5897;42.640;23.310;2023-02-03T05:10:43;94287.72;;;1.94;80.67
11682;BME280;5897;42.640;23.310;2023-02-03T05:13:09;94309.34;;;1.89;78.53
11682;BME280;5897;42.640;23.310;2023-02-03T05:15:36;94309.91;;;2.02;80.98
11682;BME280;5897;42.640;23.310;2023-02-03T05:18:03;94312.00;;;1.89;79.63
11682;BME280;5897;42.640;23.310;2023-02-03T05:20:30;94325.75;;;1.91;78.65
11682;BME280;5897;42.640;23.310;2023-02-03T05:22:57;94326.03;;;1.83;79.63
11682;BME280;5897;42.640;23.310;2023-02-03T05:25:25;94326.88;;;1.90;79.07
11682;BME280;5897;42.640;23.310;2023-02-03T05:27:54;94325.38;;;1.93;79.45
11682;BME280;5897;42.640;23.310;2023-02-03T05:30:20;94331.22;;;2.02;78.97
11682;BME280;5897;42.640;23.310;2023-02-03T05:32:47;94316.13;;;1.83;79.29
11682;BME280;5897;42.640;23.310;2023-02-03T05:35:14;94326.38;;;1.81;80.36
11682;BME280;5897;42.640;23.310;2023-02-03T05:37:42;94335.03;;;1.75;80.80
11682;BME280;5897;42.640;23.310;2023-02-03T05:40:10;94328.13;;;1.70;80.75
11682;BME280;5897;42.640;23.310;2023-02-03T05:42:51;94326.59;;;1.69;81.00
11682;BME280;5897;42.640;23.310;2023-02-03T05:45:19;94324.38;;;1.75;80.73
11682;BME280;5897;42.640;23.310;2023-02-03T05:47:46;94343.28;;;1.66;80.55
11682;BME280;5897;42.640;23.310;2023-02-03T05:50:12;94326.91;;;1.64;80.48
11682;BME280;5897;42.640;23.310;2023-02-03T05:52:39;94337.00;;;1.52;81.11
11682;BME280;5897;42.640;23.310;2023-02-03T05:55:06;94332.81;;;1.51;80.92
11682;BME280;5897;42.640;23.310;2023-02-03T05:57:33;94342.38;;;1.55;80.71
11682;BME280;5897;42.640;23.310;2023-02-03T06:00:00;94343.06;;;1.49;80.71
11682;BME280;5897;42.640;23.310;2023-02-03T06:02:28;94344.25;;;1.51;80.85
11682;BME280;5897;42.640;23.310;2023-02-03T06:04:55;94343.84;;;1.53;80.23
11682;BME280;5897;42.640;23.310;2023-02-03T06:07:21;94362.16;;;1.54;80.21
11682;BME280;5897;42.640;23.310;2023-02-03T06:09:48;94358.34;;;1.55;80.59
11682;BME280;5897;42.640;23.310;2023-02-03T06:12:15;94362.97;;;1.58;79.84
11682;BME280;5897;42.640;23.310;2023-02-03T06:14:42;94352.06;;;1.67;80.12
11682;BME280;5897;42.640;23.310;2023-02-03T06:17:08;94352.09;;;1.70;78.31
11682;BME280;5897;42.640;23.310;2023-02-03T06:19:37;94363.06;;;1.65;78.51
11682;BME280;5897;42.640;23.310;2023-02-03T06:22:03;94337.16;;;1.62;79.37
11682;BME280;5897;42.640;23.310;2023-02-03T06:24:30;94366.94;;;1.71;78.06
11682;BME280;5897;42.640;23.310;2023-02-03T06:26:57;94366.13;;;1.67;76.66
11682;BME280;5897;42.640;23.310;2023-02-03T06:29:24;94364.69;;;1.73;76.46
11682;BME280;5897;42.640;23.310;2023-02-03T06:31:51;94373.84;;;1.76;75.66
11682;BME280;5897;42.640;23.310;2023-02-03T06:34:17;94361.38;;;1.80;75.49
11682;BME280;5897;42.640;23.310;2023-02-03T06:36:46;94364.50;;;1.85;75.32
11682;BME280;5897;42.640;23.310;2023-02-03T06:39:13;94375.63;;;1.94;73.58
11682;BME280;5897;42.640;23.310;2023-02-03T06:41:40;94380.97;;;1.94;72.93
11682;BME280;5897;42.640;23.310;2023-02-03T06:44:07;94379.13;;;1.98;72.81
11682;BME280;5897;42.640;23.310;2023-02-03T06:46:34;94398.97;;;2.01;73.06
11682;BME280;5897;42.640;23.310;2023-02-03T06:49:00;94383.84;;;2.08;73.13
11682;BME280;5897;42.640;23.310;2023-02-03T06:51:27;94372.13;;;2.16;73.19
11682;BME280;5897;42.640;23.310;2023-02-03T06:53:55;94384.34;;;2.21;72.73
11682;BME280;5897;42.640;23.310;2023-02-03T06:56:23;94397.38;;;2.26;71.96
11682;BME280;5897;42.640;23.310;2023-02-03T06:58:49;94381.72;;;2.24;72.20
11682;BME280;5897;42.640;23.310;2023-02-03T07:01:16;94390.97;;;2.30;72.52
11682;BME280;5897;42.640;23.310;2023-02-03T07:03:43;94385.63;;;2.30;72.15
11682;BME280;5897;42.640;23.310;2023-02-03T07:06:11;94388.69;;;2.32;71.11
11682;BME280;5897;42.640;23.310;2023-02-03T07:08:38;94389.59;;;2.43;71.24
11682;BME280;5897;42.640;23.310;2023-02-03T07:11:07;94387.59;;;2.37;70.67
11682;BME280;5897;42.640;23.310;2023-02-03T07:13:34;94378.59;;;2.48;69.86
11682;BME280;5897;42.640;23.310;2023-02-03T07:16:01;94370.19;;;2.46;69.92
11682;BME280;5897;42.640;23.310;2023-02-03T07:18:27;94374.41;;;2.47;69.15
11682;BME280;5897;42.640;23.310;2023-02-03T07:20:55;94388.53;;;2.51;69.64
11682;BME280;5897;42.640;23.310;2023-02-03T07:23:22;94371.84;;;2.58;67.02
11682;BME280;5897;42.640;23.310;2023-02-03T07:25:49;94386.03;;;2.65;66.88
11682;BME280;5897;42.640;23.310;2023-02-03T07:28:17;94393.00;;;2.77;66.97
11682;BME280;5897;42.640;23.310;2023-02-03T07:30:44;94387.41;;;2.89;66.48
11682;BME280;5897;42.640;23.310;2023-02-03T07:33:10;94398.50;;;2.91;65.53
11682;BME280;5897;42.640;23.310;2023-02-03T07:35:37;94400.38;;;2.90;65.74
11682;BME280;5897;42.640;23.310;2023-02-03T07:38:04;94401.63;;;3.00;65.66
11682;BME280;5897;42.640;23.310;2023-02-03T07:40:31;94402.75;;;2.99;65.64
11682;BME280;5897;42.640;23.310;2023-02-03T07:42:58;94402.72;;;2.95;65.62
11682;BME280;5897;42.640;23.310;2023-02-03T07:45:26;94421.38;;;2.92;66.23
11682;BME280;5897;42.640;23.310;2023-02-03T07:47:53;94408.19;;;3.09;65.91
11682;BME280;5897;42.640;23.310;2023-02-03T07:50:20;94416.31;;;3.20;66.35
11682;BME280;5897;42.640;23.310;2023-02-03T07:52:49;94425.97;;;3.35;64.55
11682;BME280;5897;42.640;23.310;2023-02-03T07:55:16;94425.63;;;3.36;65.05
11682;BME280;5897;42.640;23.310;2023-02-03T07:57:43;94430.25;;;3.43;64.79
11682;BME280;5897;42.640;23.310;2023-02-03T08:00:12;94422.31;;;3.53;64.92
11682;BME280;5897;42.640;23.310;2023-02-03T08:02:41;94425.13;;;3.67;63.83
11682;BME280;5897;42.640;23.310;2023-02-03T08:05:09;94428.59;;;3.75;61.87
11682;BME280;5897;42.640;23.310;2023-02-03T08:07:36;94431.72;;;3.80;62.87
11682;BME280;5897;42.640;23.310;2023-02-03T08:10:03;94434.06;;;3.92;63.07
11682;BME280;5897;42.640;23.310;2023-02-03T08:12:30;94430.94;;;3.83;61.17
11682;BME280;5897;42.640;23.310;2023-02-03T08:14:57;94434.78;;;3.86;62.19
11682;BME280;5897;42.640;23.310;2023-02-03T08:17:23;94433.44;;;4.09;60.70
11682;BME280;5897;42.640;23.310;2023-02-03T08:19:52;94441.81;;;4.08;60.78
11682;BME280;5897;42.640;23.310;2023-02-03T08:22:18;94453.75;;;4.21;60.36
11682;BME280;5897;42.640;23.310;2023-02-03T08:24:46;94454.78;;;4.02;59.85
11682;BME280;5897;42.640;23.310;2023-02-03T08:27:13;94453.66;;;4.10;60.53
11682;BME280;5897;42.640;23.310;2023-02-03T08:29:40;94467.38;;;4.05;59.92
11682;BME280;5897;42.640;23.310;2023-02-03T08:32:08;94461.94;;;3.88;60.73
11682;BME280;5897;42.640;23.310;2023-02-03T08:34:35;94468.63;;;4.18;60.54
11682;BME280;5897;42.640;23.310;2023-02-03T08:37:03;94462.19;;;4.30;58.48
11682;BME280;5897;42.640;23.310;2023-02-03T08:39:31;94473.34;;;4.39;59.45
11682;BME280;5897;42.640;23.310;2023-02-03T08:41:59;94459.66;;;4.51;57.91
11682;BME280;5897;42.640;23.310;2023-02-03T08:44:28;94457.03;;;4.65;57.71
11682;BME280;5897;42.640;23.310;2023-02-03T08:46:56;94472.06;;;4.90;57.02
11682;BME280;5897;42.640;23.310;2023-02-03T08:49:25;94482.78;;;4.97;56.41
11682;BME280;5897;42.640;23.310;2023-02-03T08:51:52;94470.50;;;4.82;58.27
11682;BME280;5897;42.640;23.310;2023-02-03T08:54:21;94469.53;;;4.40;59.31
11682;BME280;5897;42.640;23.310;2023-02-03T08:56:48;94468.06;;;4.53;60.58
11682;BME280;5897;42.640;23.310;2023-02-03T08:59:15;94482.22;;;4.53;59.53
11682;BME280;5897;42.640;23.310;2023-02-03T09:01:43;94479.44;;;4.39;61.72
11682;BME280;5897;42.640;23.310;2023-02-03T09:04:11;94474.50;;;4.41;61.27
11682;BME280;5897;42.640;23.310;2023-02-03T09:06:38;94482.22;;;4.57;60.98
11682;BME280;5897;42.640;23.310;2023-02-03T09:09:05;94477.25;;;4.55;61.50
11682;BME280;5897;42.640;23.310;2023-02-03T09:11:34;94473.50;;;4.67;61.12
11682;BME280;5897;42.640;23.310;2023-02-03T09:14:00;94461.00;;;4.99;60.24
11682;BME280;5897;42.640;23.310;2023-02-03T09:16:27;94462.94;;;5.05;60.40
11682;BME280;5897;42.640;23.310;2023-02-03T09:18:55;94452.94;;;4.92;60.09
11682;BME280;5897;42.640;23.310;2023-02-03T09:21:22;94443.72;;;4.75;61.37
11682;BME280;5897;42.640;23.310;2023-02-03T09:23:49;94449.81;;;4.79;61.32
11682;BME280;5897;42.640;23.310;2023-02-03T09:26:16;94436.88;;;4.88;60.74
11682;BME280;5897;42.640;23.310;2023-02-03T09:28:44;94474.34;;;4.88;59.60
11682;BME280;5897;42.640;23.310;2023-02-03T09:31:13;94470.00;;;4.59;59.70
11682;BME280;5897;42.640;23.310;2023-02-03T09:33:42;94446.81;;;4.88;60.33
11682;BME280;5897;42.640;23.310;2023-02-03T09:36:09;94427.41;;;5.19;59.22
11682;BME280;5897;42.640;23.310;2023-02-03T09:38:36;94446.97;;;5.61;57.61
11682;BME280;5897;42.640;23.310;2023-02-03T09:41:13;94435.84;;;5.45;58.09
11682;BME280;5897;42.640;23.310;2023-02-03T09:43:48;94442.78;;;5.60;58.56
11682;BME280;5897;42.640;23.310;2023-02-03T09:46:18;94451.56;;;5.57;57.49
11682;BME280;5897;42.640;23.310;2023-02-03T09:48:49;94444.63;;;5.35;57.00
11682;BME280;5897;42.640;23.310;2023-02-03T09:51:20;94443.09;;;5.31;57.65
11682;BME280;5897;42.640;23.310;2023-02-03T09:53:50;94441.59;;;5.40;57.23
11682;BME280;5897;42.640;23.310;2023-02-03T09:56:25;94449.25;;;5.35;57.42
11682;BME280;5897;42.640;23.310;2023-02-03T09:58:54;94434.69;;;5.53;58.33
11682;BME280;5897;42.640;23.310;2023-02-03T10:01:23;94428.59;;;5.53;57.33
11682;BME280;5897;42.640;23.310;2023-02-03T10:03:54;94432.41;;;5.62;56.76
11682;BME280;5897;42.640;23.310;2023-02-03T10:06:30;94428.22;;;5.65;55.80
11682;BME280;5897;42.640;23.310;2023-02-03T10:09:16;94427.84;;;5.77;53.98
11682;BME280;5897;42.640;23.310;2023-02-03T10:11:54;94424.78;;;5.85;54.84
11682;BME280;5897;42.640;23.310;2023-02-03T10:14:40;94423.22;;;5.74;53.54
11682;BME280;5897;42.640;23.310;2023-02-03T10:17:18;94403.34;;;5.89;53.85
11682;BME280;5897;42.640;23.310;2023-02-03T10:19:49;94404.47;;;6.12;52.17
11682;BME280;5897;42.640;23.310;2023-02-03T10:22:20;94426.25;;;6.28;51.98
11682;BME280;5897;42.640;23.310;2023-02-03T10:24:52;94417.84;;;6.19;53.07
11682;BME280;5897;42.640;23.310;2023-02-03T10:27:21;94397.16;;;6.23;53.52
11682;BME280;5897;42.640;23.310;2023-02-03T10:29:54;94420.50;;;6.40;53.96
11682;BME280;5897;42.640;23.310;2023-02-03T10:32:23;94410.94;;;6.32;52.37
11682;BME280;5897;42.640;23.310;2023-02-03T10:34:51;94414.03;;;6.13;49.78
11682;BME280;5897;42.640;23.310;2023-02-03T10:37:25;94397.56;;;6.01;50.46
11682;BME280;5897;42.640;23.310;2023-02-03T10:39:53;94406.63;;;6.59;52.33
11682;BME280;5897;42.640;23.310;2023-02-03T10:42:22;94404.91;;;7.00;47.52
11682;BME280;5897;42.640;23.310;2023-02-03T10:44:57;94402.13;;;7.21;48.04
11682;BME280;5897;42.640;23.310;2023-02-03T10:47:26;94405.66;;;7.08;46.79
11682;BME280;5897;42.640;23.310;2023-02-03T10:49:56;94396.63;;;7.42;46.17
11682;BME280;5897;42.640;23.310;2023-02-03T10:52:29;94398.72;;;7.10;46.53
11682;BME280;5897;42.640;23.310;2023-02-03T10:54:57;94381.09;;;7.09;47.78
11682;BME280;5897;42.640;23.310;2023-02-03T10:57:26;94396.97;;;7.44;46.90
11682;BME280;5897;42.640;23.310;2023-02-03T11:00:07;94403.84;;;6.84;46.75
11682;BME280;5897;42.640;23.310;2023-02-03T11:02:45;94409.41;;;6.31;47.68
11682;BME280;5897;42.640;23.310;2023-02-03T11:05:20;94409.47;;;5.82;47.02
11682;BME280;5897;42.640;23.310;2023-02-03T11:07:49;94417.88;;;5.56;46.86
11682;BME280;5897;42.640;23.310;2023-02-03T11:10:32;94409.41;;;5.23;47.39
11682;BME280;5897;42.640;23.310;2023-02-03T11:13:17;94407.13;;;5.39;46.32
11682;BME280;5897;42.640;23.310;2023-02-03T11:15:50;94402.94;;;5.59;46.16
11682;BME280;5897;42.640;23.310;2023-02-03T11:18:35;94401.00;;;6.15;44.45
11682;BME280;5897;42.640;23.310;2023-02-03T11:21:07;94379.28;;;6.82;44.46
11682;BME280;5897;42.640;23.310;2023-02-03T11:23:35;94390.16;;;7.29;42.20
11682;BME280;5897;42.640;23.310;2023-02-03T11:26:11;94378.78;;;7.62;43.17
11682;BME280;5897;42.640;23.310;2023-02-03T11:28:42;94379.22;;;7.57;44.59
11682;BME280;5897;42.640;23.310;2023-02-03T11:31:19;94371.09;;;7.10;47.02
11682;BME280;5897;42.640;23.310;2023-02-03T11:33:50;94369.19;;;7.10;45.88
11682;BME280;5897;42.640;23.310;2023-02-03T11:36:19;94355.28;;;7.22;42.87
11682;BME280;5897;42.640;23.310;2023-02-03T11:38:46;94363.69;;;7.31;42.86
11682;BME280;5897;42.640;23.310;2023-02-03T11:41:15;94359.13;;;7.21;42.74
11682;BME280;5897;42.640;23.310;2023-02-03T11:43:44;94345.03;;;7.58;42.07
11682;BME280;5897;42.640;23.310;2023-02-03T11:46:11;94341.84;;;8.10;42.14
11682;BME280;5897;42.640;23.310;2023-02-03T11:48:48;94347.06;;;8.61;40.28
11682;BME280;5897;42.640;23.310;2023-02-03T11:51:27;94346.44;;;9.10;40.78
11682;BME280;5897;42.640;23.310;2023-02-03T11:54:09;94351.84;;;8.50;39.61
11682;BME280;5897;42.640;23.310;2023-02-03T11:56:52;94349.47;;;7.78;40.90
11682;BME280;5897;42.640;23.310;2023-02-03T11:59:34;94356.91;;;7.09;42.89
11682;BME280;5897;42.640;23.310;2023-02-03T12:02:33;94342.88;;;7.39;43.29
11682;BME280;5897;42.640;23.310;2023-02-03T12:05:26;94363.16;;;6.92;41.27
11682;BME280;5897;42.640;23.310;2023-02-03T12:08:09;94358.00;;;6.40;41.94
11682;BME280;5897;42.640;23.310;2023-02-03T12:10:46;94365.38;;;6.18;42.25
11682;BME280;5897;42.640;23.310;2023-02-03T12:13:27;94360.56;;;6.71;41.00
11682;BME280;5897;42.640;23.310;2023-02-03T12:16:23;94360.34;;;7.64;39.54
11682;BME280;5897;42.640;23.310;2023-02-03T12:19:03;94348.44;;;8.06;37.43
11682;BME280;5897;42.640;23.310;2023-02-03T12:21:54;94350.28;;;8.12;36.50
11682;BME280;5897;42.640;23.310;2023-02-03T12:24:31;94354.50;;;8.13;38.47
11682;BME280;5897;42.640;23.310;2023-02-03T12:27:09;94364.88;;;8.52;36.84
11682;BME280;5897;42.640;23.310;2023-02-03T12:29:42;94352.59;;;8.14;37.54
11682;BME280;5897;42.640;23.310;2023-02-03T12:32:18;94357.88;;;8.58;36.24
11682;BME280;5897;42.640;23.310;2023-02-03T12:34:50;94351.78;;;7.76;36.60
11682;BME280;5897;42.640;23.310;2023-02-03T12:37:22;94354.16;;;7.16;38.90
11682;BME280;5897;42.640;23.310;2023-02-03T12:39:52;94350.50;;;7.44;38.81
11682;BME280;5897;42.640;23.310;2023-02-03T12:42:22;94351.78;;;7.29;38.39
11682;BME280;5897;42.640;23.310;2023-02-03T12:44:52;94349.56;;;7.64;37.95
11682;BME280;5897;42.640;23.310;2023-02-03T12:47:26;94341.31;;;7.41;38.36
11682;BME280;5897;42.640;23.310;2023-02-03T12:49:57;94340.56;;;6.86;39.72
11682;BME280;5897;42.640;23.310;2023-02-03T12:52:30;94333.59;;;6.10;41.67
11682;BME280;5897;42.640;23.310;2023-02-03T12:55:14;94338.22;;;5.92;42.56
11682;BME280;5897;42.640;23.310;2023-02-03T12:57:45;94336.72;;;5.52;43.56
11682;BME280;5897;42.640;23.310;2023-02-03T13:00:28;94344.38;;;5.33;43.97
11682;BME280;5897;42.640;23.310;2023-02-03T13:03:05;94335.19;;;5.16;44.25
11682;BME280;5897;42.640;23.310;2023-02-03T13:05:40;94332.47;;;5.02;45.21
11682;BME280;5897;42.640;23.310;2023-02-03T13:08:13;94327.47;;;4.76;45.70
11682;BME280;5897;42.640;23.310;2023-02-03T13:10:45;94309.50;;;4.73;46.01
11682;BME280;5897;42.640;23.310;2023-02-03T13:13:19;94327.53;;;5.08;46.12
11682;BME280;5897;42.640;23.310;2023-02-03T13:15:49;94329.03;;;5.23;45.24
11682;BME280;5897;42.640;23.310;2023-02-03T13:18:24;94324.47;;;5.16;45.46
11682;BME280;5897;42.640;23.310;2023-02-03T13:20:52;94318.34;;;5.23;45.81
11682;BME280;5897;42.640;23.310;2023-02-03T13:23:21;94316.44;;;5.23;46.79
11682;BME280;5897;42.640;23.310;2023-02-03T13:26:07;94314.13;;;5.11;49.08
11682;BME280;5897;42.640;23.310;2023-02-03T13:28:46;94314.50;;;5.20;50.01